createdAt,value
2023-01-10T00:01:33.933Z,2.45
2023-01-10T00:04:01.263Z,2.15
2023-01-10T00:06:29.051Z,2.20
2023-01-10T00:08:57.540Z,2.00
2023-01-10T00:11:43.777Z,2.35
2023-01-10T00:14:12.315Z,2.40
2023-01-10T00:16:40.741Z,2.65
2023-01-10T00:19:09.794Z,2.33
2023-01-10T00:21:38.187Z,2.40
2023-01-10T00:24:17.271Z,2.80
2023-01-10T00:26:54.635Z,2.70
2023-01-10T00:29:25.512Z,2.50
2023-01-10T00:31:52.720Z,2.70
2023-01-10T00:34:20.387Z,2.70
2023-01-10T00:36:48.179Z,2.63
2023-01-10T00:39:16.661Z,2.72
2023-01-10T00:42:02.374Z,2.42
2023-01-10T00:44:29.548Z,3.00
2023-01-10T00:46:56.783Z,2.80
2023-01-10T00:49:23.978Z,3.28
2023-01-10T00:51:51.355Z,2.60
2023-01-10T00:54:18.639Z,3.40
2023-01-10T00:56:45.844Z,2.35
2023-01-10T00:59:13.098Z,3.15
2023-01-10T01:01:40.581Z,2.90
2023-01-10T01:04:07.857Z,2.88
2023-01-10T01:06:35.094Z,2.90
2023-01-10T01:09:02.309Z,2.72
2023-01-10T01:11:29.510Z,2.58
2023-01-10T01:13:56.834Z,2.63
2023-01-10T01:16:24.173Z,2.67
2023-01-10T01:18:51.343Z,3.22
2023-01-10T01:21:18.672Z,2.72
2023-01-10T01:23:45.911Z,2.75
2023-01-10T01:26:13.295Z,3.05
2023-01-10T01:28:40.641Z,2.70
2023-01-10T01:31:09.932Z,3.00
2023-01-10T01:33:37.733Z,2.70
2023-01-10T01:36:10.005Z,3.78
2023-01-10T01:38:41.257Z,3.20
2023-01-10T01:41:28.587Z,2.60
2023-01-10T01:44:05.428Z,2.88
2023-01-10T01:46:38.350Z,2.83
2023-01-10T01:49:13.626Z,3.03
2023-01-10T01:51:41.123Z,3.20
2023-01-10T01:54:12.196Z,2.80
2023-01-10T01:56:46.444Z,3.20
2023-01-10T01:59:18.128Z,2.50
2023-01-10T02:01:49.277Z,2.90
2023-01-10T02:04:29.675Z,2.90
2023-01-10T02:06:58.408Z,3.00
2023-01-10T02:09:46.536Z,2.90
2023-01-10T02:12:15.563Z,2.50
2023-01-10T02:14:45.344Z,2.58
2023-01-10T02:17:12.878Z,2.65
2023-01-10T02:19:55.016Z,2.67
2023-01-10T02:25:27.384Z,2.58
2023-01-10T02:28:32.309Z,2.88
2023-01-10T02:31:30.704Z,3.03
2023-01-10T02:34:00.642Z,2.80
2023-01-10T02:36:49.638Z,2.75
2023-01-10T02:39:25.845Z,2.88
2023-01-10T02:42:01.687Z,2.45
2023-01-10T02:44:54.636Z,2.60
2023-01-10T02:47:21.995Z,2.70
2023-01-10T02:49:51.083Z,2.58
2023-01-10T02:52:26.951Z,2.92
2023-01-10T02:54:59.744Z,2.70
2023-01-10T02:57:30.026Z,2.72
2023-01-10T03:00:06.150Z,3.20
2023-01-10T03:02:45.260Z,3.33
2023-01-10T03:05:34.091Z,3.00
2023-01-10T03:08:20.105Z,3.83
2023-01-10T03:10:57.165Z,3.35
2023-01-10T03:13:43.355Z,3.35
2023-01-10T03:16:15.833Z,3.70
2023-01-10T03:19:08.707Z,3.63
2023-01-10T03:21:38.795Z,3.60
2023-01-10T03:24:15.833Z,3.60
2023-01-10T03:27:02.051Z,3.45
2023-01-10T03:29:45.179Z,3.67
2023-01-10T03:32:16.790Z,3.60
2023-01-10T03:34:44.799Z,3.70
2023-01-10T03:37:20.953Z,4.32
2023-01-10T03:40:00.004Z,3.95
2023-01-10T03:43:15.560Z,3.88
2023-01-10T03:46:04.513Z,4.32
2023-01-10T03:48:36.645Z,4.45
2023-01-10T03:51:06.598Z,4.40
2023-01-10T03:53:37.382Z,3.95
2023-01-10T03:56:05.095Z,4.50
2023-01-10T03:58:32.392Z,4.72
2023-01-10T04:00:59.890Z,4.72
2023-01-10T04:03:27.173Z,4.35
2023-01-10T04:05:54.520Z,4.90
2023-01-10T04:08:21.826Z,4.70
2023-01-10T04:10:49.891Z,4.47
2023-01-10T04:13:17.365Z,4.45
2023-01-10T04:15:44.762Z,3.92
2023-01-10T04:18:13.220Z,4.18
2023-01-10T04:20:40.464Z,4.32
2023-01-10T04:23:07.713Z,4.25
2023-01-10T04:25:35.002Z,4.30
2023-01-10T04:28:02.440Z,5.28
2023-01-10T04:30:29.632Z,5.05
2023-01-10T04:32:56.893Z,4.80
2023-01-10T04:35:24.069Z,5.30
2023-01-10T04:37:51.396Z,5.22
2023-01-10T04:40:19.917Z,5.07
2023-01-10T04:42:47.256Z,5.38
2023-01-10T04:45:17.850Z,5.68
2023-01-10T04:47:50.456Z,5.40
2023-01-10T04:50:18.014Z,5.70
2023-01-10T04:52:45.397Z,5.35
2023-01-10T04:55:12.678Z,5.10
2023-01-10T04:57:39.934Z,5.43
2023-01-10T05:00:08.447Z,5.40
2023-01-10T05:02:36.241Z,5.72
2023-01-10T05:05:03.545Z,5.45
2023-01-10T05:07:30.911Z,5.50
2023-01-10T05:09:58.151Z,4.80
2023-01-10T05:12:25.401Z,4.55
2023-01-10T05:14:52.644Z,5.18
2023-01-10T05:17:19.940Z,5.43
2023-01-10T05:19:47.193Z,5.13
2023-01-10T05:22:14.671Z,5.18
2023-01-10T05:24:41.871Z,5.15
2023-01-10T05:27:09.167Z,5.03
2023-01-10T05:29:36.546Z,5.45
2023-01-10T05:32:03.968Z,4.93
2023-01-10T05:34:31.194Z,5.65
2023-01-10T05:36:58.516Z,5.40
2023-01-10T05:39:25.708Z,5.28
2023-01-10T05:41:53.019Z,5.25
2023-01-10T05:44:20.301Z,5.57
2023-01-10T05:46:47.683Z,5.20
2023-01-10T05:49:14.915Z,5.07
2023-01-10T05:51:45.173Z,4.95
2023-01-10T05:54:12.384Z,5.72
2023-01-10T05:56:39.763Z,5.85
2023-01-10T05:59:17.012Z,5.13
2023-01-10T06:01:51.027Z,5.80
2023-01-10T06:04:18.456Z,5.35
2023-01-10T06:06:45.710Z,5.43
2023-01-10T06:09:13.004Z,4.90
2023-01-10T06:11:40.428Z,4.88
2023-01-10T06:14:07.917Z,5.32
2023-01-10T06:16:35.251Z,4.53
2023-01-10T06:19:02.491Z,4.53
2023-01-10T06:21:29.758Z,4.68
2023-01-10T06:23:57.912Z,5.20
2023-01-10T06:26:25.209Z,4.28
2023-01-10T06:28:52.461Z,4.85
2023-01-10T06:31:22.382Z,5.05
2023-01-10T06:33:53.012Z,5.10
2023-01-10T06:36:20.477Z,4.57
2023-01-10T06:38:47.772Z,4.13
2023-01-10T06:41:15.165Z,4.55
2023-01-10T06:43:47.017Z,4.65
2023-01-10T06:46:16.806Z,4.35
2023-01-10T06:48:45.702Z,4.57
2023-01-10T06:51:14.700Z,4.82
2023-01-10T06:53:42.789Z,4.55
2023-01-10T06:56:10.920Z,4.70
2023-01-10T06:58:39.081Z,4.10
2023-01-10T07:01:17.496Z,4.45
2023-01-10T07:03:45.023Z,4.38
2023-01-10T07:06:13.022Z,4.80
2023-01-10T07:08:41.827Z,4.45
2023-01-10T07:11:10.002Z,4.38
2023-01-10T07:13:37.317Z,4.93
2023-01-10T07:16:06.732Z,3.97
2023-01-10T07:18:35.125Z,6.32
2023-01-10T07:21:02.482Z,4.55
2023-01-10T07:23:31.400Z,4.35
2023-01-10T07:26:02.647Z,4.47
2023-01-10T07:28:29.970Z,4.00
2023-01-10T07:31:01.586Z,3.97
2023-01-10T07:33:29.862Z,5.32
2023-01-10T07:35:58.352Z,3.25
2023-01-10T07:38:25.608Z,3.40
2023-01-10T07:40:52.906Z,3.25
2023-01-10T07:43:20.203Z,3.33
2023-01-10T07:45:47.530Z,3.10
2023-01-10T07:48:14.770Z,3.30
2023-01-10T07:50:42.161Z,4.07
2023-01-10T07:53:10.046Z,3.63
2023-01-10T07:55:39.063Z,3.33
2023-01-10T07:58:08.147Z,4.32
2023-01-10T08:00:36.195Z,3.25
2023-01-10T08:03:04.236Z,3.70
2023-01-10T08:05:31.802Z,3.35
2023-01-10T08:08:08.202Z,3.15
2023-01-10T08:10:37.124Z,4.68
2023-01-10T08:13:17.880Z,3.60
2023-01-10T08:15:50.388Z,3.65
2023-01-10T08:18:19.421Z,3.50
2023-01-10T08:20:49.097Z,3.03
2023-01-10T08:23:17.500Z,3.63
2023-01-10T08:25:45.677Z,3.35
2023-01-10T08:28:14.068Z,3.80
2023-01-10T08:30:41.826Z,3.42
2023-01-10T08:33:11.170Z,3.60
2023-01-10T08:35:43.512Z,3.22
2023-01-10T08:38:11.990Z,3.42
2023-01-10T08:40:40.022Z,3.45
2023-01-10T08:43:11.512Z,3.33
2023-01-10T08:45:39.588Z,3.40
2023-01-10T08:48:09.398Z,3.40
2023-01-10T08:50:37.258Z,3.50
2023-01-10T08:53:04.624Z,3.13
2023-01-10T08:55:32.267Z,3.85
2023-01-10T08:58:00.756Z,3.50
2023-01-10T09:00:28.815Z,3.85
2023-01-10T09:02:56.165Z,4.25
2023-01-10T09:05:27.944Z,3.83
2023-01-10T09:08:03.508Z,3.78
2023-01-10T09:10:31.241Z,3.70
2023-01-10T09:13:01.758Z,4.22
2023-01-10T09:15:35.054Z,3.80
2023-01-10T09:18:05.098Z,4.53
2023-01-10T09:20:35.047Z,3.95
2023-01-10T09:23:07.911Z,4.00
2023-01-10T09:25:36.017Z,3.97
2023-01-10T09:28:05.487Z,4.55
2023-01-10T09:30:33.859Z,3.88
2023-01-10T09:33:01.982Z,4.10
2023-01-10T09:35:31.181Z,4.22
2023-01-10T09:38:01.593Z,4.20
2023-01-10T09:40:38.312Z,3.60
2023-01-10T09:43:32.729Z,3.95
2023-01-10T09:46:22.249Z,3.75
2023-01-10T09:49:17.920Z,4.40
2023-01-10T09:51:49.174Z,4.07
2023-01-10T09:54:22.630Z,4.07
2023-01-10T09:56:50.743Z,4.50
2023-01-10T09:59:25.946Z,4.13
2023-01-10T10:02:04.803Z,3.60
2023-01-10T10:04:37.302Z,4.18
2023-01-10T10:07:15.358Z,4.07
2023-01-10T10:09:43.839Z,3.95
2023-01-10T10:12:23.147Z,4.20
2023-01-10T10:15:12.108Z,3.65
2023-01-10T10:17:48.885Z,3.70
2023-01-10T10:20:25.110Z,4.10
2023-01-10T10:23:11.487Z,4.10
2023-01-10T10:25:55.583Z,4.25
2023-01-10T10:28:55.213Z,3.92
2023-01-10T10:31:43.740Z,3.92
2023-01-10T10:34:25.383Z,3.42
2023-01-10T10:36:54.788Z,3.85
2023-01-10T10:39:41.381Z,3.90
2023-01-10T10:42:13.759Z,3.38
2023-01-10T10:44:47.513Z,3.40
2023-01-10T10:47:17.750Z,4.70
2023-01-10T10:49:51.218Z,3.95
2023-01-10T10:52:27.803Z,3.97
2023-01-10T10:54:55.359Z,3.50
2023-01-10T10:57:27.881Z,3.55
2023-01-10T10:59:56.328Z,4.00
2023-01-10T11:02:32.141Z,3.30
2023-01-10T11:05:14.354Z,5.05
2023-01-10T11:07:41.671Z,3.65
2023-01-10T11:10:35.563Z,3.53
2023-01-10T11:13:35.623Z,4.07
2023-01-10T11:16:06.374Z,4.50
2023-01-10T11:18:34.672Z,3.63
2023-01-10T11:21:28.357Z,3.13
2023-01-10T11:23:57.705Z,3.35
2023-01-10T11:26:28.504Z,2.95
2023-01-10T11:29:07.686Z,3.70
2023-01-10T11:31:37.310Z,2.63
2023-01-10T11:34:17.227Z,3.08
2023-01-10T11:36:58.910Z,2.75
2023-01-10T11:39:28.362Z,3.28
2023-01-10T11:41:58.307Z,2.50
2023-01-10T11:44:28.566Z,3.08
2023-01-10T11:47:11.256Z,2.95
2023-01-10T11:49:43.938Z,2.80
2023-01-10T11:52:30.656Z,3.05
2023-01-10T11:55:00.620Z,2.83
2023-01-10T11:57:32.035Z,3.42
2023-01-10T12:00:07.429Z,3.20
2023-01-10T12:02:43.005Z,3.45
2023-01-10T12:05:20.061Z,3.10
2023-01-10T12:08:23.929Z,2.92
2023-01-10T12:11:17.597Z,3.13
2023-01-10T12:13:50.568Z,3.22
2023-01-10T12:16:22.614Z,3.70
2023-01-10T12:19:07.508Z,3.78
2023-01-10T12:21:44.918Z,2.80
2023-01-10T12:24:18.123Z,3.85
2023-01-10T12:26:47.397Z,2.97
2023-01-10T12:29:19.797Z,2.90
2023-01-10T12:31:47.015Z,3.22
2023-01-10T12:34:21.239Z,3.55
2023-01-10T12:37:08.865Z,3.20
2023-01-10T12:39:48.229Z,3.28
2023-01-10T12:43:17.096Z,2.85
2023-01-10T12:47:05.266Z,3.17
2023-01-10T12:49:35.999Z,3.30
2023-01-10T12:52:10.538Z,3.20
2023-01-10T12:54:37.966Z,3.47
2023-01-10T12:57:26.309Z,3.47
2023-01-10T12:59:55.128Z,3.35
2023-01-10T13:02:26.851Z,3.10
2023-01-10T13:05:00.011Z,3.42
2023-01-10T13:07:33.838Z,3.05
2023-01-10T13:10:06.290Z,3.33
2023-01-10T13:12:43.067Z,3.45
2023-01-10T13:15:16.176Z,3.53
2023-01-10T13:17:48.484Z,3.38
2023-01-10T13:20:18.989Z,2.95
2023-01-10T13:22:48.836Z,2.75
2023-01-10T13:25:27.145Z,3.20
2023-01-10T13:28:03.748Z,2.80
2023-01-10T13:30:42.784Z,3.33
2023-01-10T13:33:19.119Z,3.35
2023-01-10T13:35:49.288Z,2.90
2023-01-10T13:38:31.542Z,3.53
2023-01-10T13:41:07.225Z,2.92
2023-01-10T13:43:34.787Z,3.10
2023-01-10T13:46:17.545Z,2.70
2023-01-10T13:48:50.976Z,3.58
2023-01-10T13:51:22.723Z,3.53
2023-01-10T13:53:52.807Z,3.50
2023-01-10T13:56:41.852Z,3.28
2023-01-10T13:59:32.346Z,3.88
2023-01-10T14:02:20.671Z,3.05
2023-01-10T14:04:54.277Z,3.10
2023-01-10T14:07:48.139Z,2.95
2023-01-10T14:10:27.717Z,2.75
2023-01-10T14:12:59.454Z,3.15
2023-01-10T14:15:37.160Z,2.60
2023-01-10T14:18:21.497Z,3.65
2023-01-10T14:21:01.909Z,3.33
2023-01-10T14:23:41.289Z,2.67
2023-01-10T14:26:28.919Z,2.85
2023-01-10T14:28:56.949Z,3.25
2023-01-10T14:31:25.613Z,2.72
2023-01-10T14:33:54.315Z,2.70
2023-01-10T14:36:26.426Z,2.50
2023-01-10T14:38:58.735Z,3.10
2023-01-10T14:41:35.822Z,3.20
2023-01-10T14:44:21.010Z,3.33
2023-01-10T14:46:50.771Z,2.92
2023-01-10T14:49:30.020Z,2.88
2023-01-10T14:52:11.908Z,2.95
2023-01-10T14:54:39.196Z,3.55
2023-01-10T14:57:20.119Z,3.83
2023-01-10T14:59:48.122Z,3.08
2023-01-10T15:02:25.586Z,3.30
2023-01-10T15:04:59.454Z,3.10
2023-01-10T15:07:28.615Z,2.90
2023-01-10T15:10:02.423Z,3.28
2023-01-10T15:12:30.759Z,3.20
2023-01-10T15:15:05.812Z,4.07
2023-01-10T15:17:35.699Z,3.17
2023-01-10T15:20:04.976Z,3.17
2023-01-10T15:22:37.050Z,3.75
2023-01-10T15:25:26.881Z,3.65
2023-01-10T15:27:55.195Z,3.45
2023-01-10T15:30:24.963Z,4.68
2023-01-10T15:32:55.199Z,3.83
2023-01-10T15:35:36.219Z,3.42
2023-01-10T15:38:08.394Z,4.25
2023-01-10T15:40:38.006Z,3.17
2023-01-10T15:43:11.311Z,3.35
2023-01-10T15:45:40.114Z,3.42
2023-01-10T15:48:30.999Z,3.33
2023-01-10T15:51:03.798Z,3.53
2023-01-10T15:54:03.428Z,3.50
2023-01-10T15:56:38.248Z,3.67
2023-01-10T15:59:20.601Z,3.80
2023-01-10T16:02:21.912Z,3.90
2023-01-10T16:04:57.591Z,3.27
2023-01-10T16:07:36.185Z,3.30
2023-01-10T16:10:14.861Z,3.45
2023-01-10T16:13:01.584Z,3.15
2023-01-10T16:15:31.853Z,3.50
2023-01-10T16:17:59.271Z,3.38
2023-01-10T16:20:38.223Z,3.25
2023-01-10T16:23:11.085Z,3.90
2023-01-10T16:25:39.974Z,3.63
2023-01-10T16:28:07.358Z,3.30
2023-01-10T16:30:35.347Z,3.65
2023-01-10T16:33:16.352Z,4.85
2023-01-10T16:35:48.307Z,3.63
2023-01-10T16:38:17.881Z,4.10
2023-01-10T16:41:22.300Z,3.85
2023-01-10T16:43:50.128Z,3.88
2023-01-10T16:46:17.573Z,4.07
2023-01-10T16:48:50.012Z,3.53
2023-01-10T16:51:30.410Z,4.07
2023-01-10T16:53:57.794Z,3.90
2023-01-10T16:56:28.357Z,3.65
2023-01-10T16:58:56.687Z,6.10
2023-01-10T17:01:31.662Z,3.80
2023-01-10T17:03:59.877Z,3.80
2023-01-10T17:06:27.210Z,3.83
2023-01-10T17:08:54.473Z,4.03
2023-01-10T17:11:28.603Z,3.97
2023-01-10T17:13:56.069Z,4.10
2023-01-10T17:16:24.559Z,4.03
2023-01-10T17:18:52.246Z,3.55
2023-01-10T17:21:22.044Z,4.38
2023-01-10T17:23:50.158Z,3.85
2023-01-10T17:26:19.038Z,3.88
2023-01-10T17:28:48.493Z,4.55
2023-01-10T17:31:17.662Z,4.57
2023-01-10T17:33:45.254Z,4.15
2023-01-10T17:36:12.620Z,4.65
2023-01-10T17:38:40.515Z,3.63
2023-01-10T17:41:09.407Z,3.90
2023-01-10T17:43:38.134Z,4.20
2023-01-10T17:46:08.622Z,3.75
2023-01-10T17:48:36.159Z,3.90
2023-01-10T17:51:04.604Z,4.50
2023-01-10T17:53:32.627Z,4.47
2023-01-10T17:56:01.224Z,4.65
2023-01-10T17:58:28.901Z,6.18
2023-01-10T18:00:56.567Z,5.70
2023-01-10T18:03:24.178Z,4.85
2023-01-10T18:05:57.030Z,5.30
2023-01-10T18:08:26.207Z,5.05
2023-01-10T18:11:00.396Z,5.47
2023-01-10T18:13:31.708Z,6.15
2023-01-10T18:16:00.263Z,4.32
2023-01-10T18:18:28.642Z,4.47
2023-01-10T18:20:58.281Z,4.72
2023-01-10T18:23:26.940Z,4.63
2023-01-10T18:26:01.709Z,5.00
2023-01-10T18:28:40.981Z,4.95
2023-01-10T18:31:13.874Z,5.05
2023-01-10T18:36:14.633Z,5.95
2023-01-10T18:38:42.621Z,6.20
2023-01-10T18:41:09.940Z,6.13
2023-01-10T18:43:37.184Z,5.28
2023-01-10T18:46:08.242Z,4.90
2023-01-10T18:48:35.596Z,4.80
2023-01-10T18:51:04.051Z,5.10
2023-01-10T18:53:32.181Z,4.88
2023-01-10T18:56:02.197Z,4.85
2023-01-10T18:58:33.270Z,4.88
2023-01-10T19:01:07.529Z,5.40
2023-01-10T19:03:35.836Z,5.93
2023-01-10T19:06:05.195Z,6.63
2023-01-10T19:08:32.841Z,5.88
2023-01-10T19:11:16.464Z,5.85
2023-01-10T19:13:46.489Z,6.03
2023-01-10T19:16:25.597Z,5.57
2023-01-10T19:18:58.293Z,5.25
2023-01-10T19:21:27.177Z,5.80
2023-01-10T19:23:55.941Z,5.45
2023-01-10T19:26:24.370Z,5.80
2023-01-10T19:28:52.925Z,5.40
2023-01-10T19:31:25.498Z,5.90
2023-01-10T19:33:53.695Z,9.23
2023-01-10T19:36:22.880Z,6.20
2023-01-10T19:38:58.342Z,7.38
2023-01-10T19:41:26.586Z,5.63
2023-01-10T19:43:59.350Z,6.95
2023-01-10T19:46:27.977Z,5.63
2023-01-10T19:48:56.153Z,5.05
2023-01-10T19:51:23.483Z,6.40
2023-01-10T19:53:51.039Z,5.28
2023-01-10T19:56:23.079Z,5.93
2023-01-10T19:58:51.317Z,5.28
2023-01-10T20:01:21.560Z,5.22
2023-01-10T20:03:49.488Z,5.28
2023-01-10T20:06:20.935Z,5.22
2023-01-10T20:08:49.301Z,5.35
2023-01-10T20:11:17.958Z,6.05
2023-01-10T20:13:45.536Z,5.28
2023-01-10T20:16:14.296Z,5.95
2023-01-10T20:18:42.525Z,5.75
2023-01-10T20:21:11.696Z,7.47
2023-01-10T20:23:40.407Z,6.53
2023-01-10T20:26:14.175Z,6.38
2023-01-10T20:28:42.538Z,5.22
2023-01-10T20:31:13.950Z,6.53
2023-01-10T20:33:41.271Z,5.95
2023-01-10T20:36:12.550Z,6.18
2023-01-10T20:38:39.853Z,5.88
2023-01-10T20:41:11.263Z,6.00
2023-01-10T20:43:39.099Z,5.93
2023-01-10T20:46:10.816Z,7.00
2023-01-10T20:48:38.968Z,5.53
2023-01-10T20:51:06.942Z,5.78
2023-01-10T20:53:34.363Z,4.85
2023-01-10T20:56:03.431Z,5.22
2023-01-10T20:58:31.210Z,4.57
2023-01-10T21:00:58.692Z,4.60
2023-01-10T21:03:25.991Z,4.55
2023-01-10T21:05:54.780Z,4.50
2023-01-10T21:08:22.820Z,3.75
2023-01-10T21:10:51.414Z,4.47
2023-01-10T21:13:19.459Z,4.70
2023-01-10T21:15:47.311Z,5.60
2023-01-10T21:18:16.015Z,4.63
2023-01-10T21:20:44.962Z,4.15
2023-01-10T21:23:14.060Z,4.22
2023-01-10T21:25:41.639Z,4.10
2023-01-10T21:28:11.803Z,4.22
2023-01-10T21:30:40.231Z,5.75
2023-01-10T21:33:09.478Z,4.53
2023-01-10T21:35:36.981Z,3.47
2023-01-10T21:38:04.518Z,3.90
2023-01-10T21:40:32.218Z,4.22
2023-01-10T21:43:00.218Z,3.75
2023-01-10T21:45:28.645Z,3.95
2023-01-10T21:47:56.524Z,3.75
2023-01-10T21:50:23.903Z,3.28
2023-01-10T21:52:51.348Z,3.40
2023-01-10T21:55:18.838Z,3.60
2023-01-10T21:57:46.175Z,3.60
2023-01-10T22:00:13.750Z,3.33
2023-01-10T22:02:42.502Z,4.28
2023-01-10T22:05:11.208Z,4.25
2023-01-10T22:07:38.747Z,4.07
2023-01-10T22:10:08.133Z,3.88
2023-01-10T22:12:36.831Z,4.50
2023-01-10T22:15:04.913Z,4.13
2023-01-10T22:17:32.351Z,3.75
2023-01-10T22:19:59.773Z,3.20
2023-01-10T22:22:27.299Z,3.85
2023-01-10T22:24:54.714Z,3.95
2023-01-10T22:27:22.103Z,3.75
2023-01-10T22:29:49.541Z,4.10
2023-01-10T22:32:17.032Z,3.70
2023-01-10T22:34:44.485Z,3.65
2023-01-10T22:37:11.817Z,3.30
2023-01-10T22:39:39.286Z,3.10
2023-01-10T22:42:06.703Z,3.67
2023-01-10T22:44:34.005Z,3.60
2023-01-10T22:47:01.174Z,3.17
2023-01-10T22:49:28.461Z,3.22
2023-01-10T22:51:55.719Z,3.00
2023-01-10T22:54:22.964Z,3.35
2023-01-10T22:56:50.202Z,3.22
2023-01-10T22:59:17.529Z,3.22
2023-01-10T23:01:45.036Z,3.53
2023-01-10T23:04:13.164Z,3.05
2023-01-10T23:06:40.536Z,3.50
2023-01-10T23:09:07.961Z,3.45
2023-01-10T23:11:35.252Z,3.65
2023-01-10T23:14:02.506Z,3.55
2023-01-10T23:16:32.831Z,3.50
2023-01-10T23:19:00.717Z,3.30
2023-01-10T23:21:30.960Z,3.40
2023-01-10T23:23:58.525Z,3.67
2023-01-10T23:26:25.779Z,4.47
2023-01-10T23:28:53.241Z,3.80
2023-01-10T23:31:23.016Z,3.67
2023-01-10T23:33:51.099Z,3.30
2023-01-10T23:36:18.686Z,3.58
2023-01-10T23:38:46.179Z,3.53
2023-01-10T23:41:13.542Z,4.05
2023-01-10T23:43:40.966Z,3.55
2023-01-10T23:46:08.279Z,3.47
2023-01-10T23:48:35.984Z,3.75
2023-01-10T23:51:03.413Z,3.55
2023-01-10T23:53:30.672Z,3.40
2023-01-10T23:55:58.401Z,3.47
2023-01-10T23:58:25.817Z,3.78
